Flight Track Log - Related Links

Times and Time Zones

All times are in EDT time to prevent confusion due to time zone crossing. See the CTL17 flight status page for this flight to view local times or setup timezone preferences in your user account.

Time Position Orientation Groundspeed Altitude Reporting Facility
EDT Latitude Longitude Course Direction KTS MPH feet Rate Location/Type
Tue 17:37:24 42.2653 -83.5658 299° West 124 143 2,100  Level Cleveland Center
Tue 17:38:25 42.2744 -83.6056 287° West 118 136 3,300 1,131 Climbing Cleveland Center
Tue 17:39:26 42.2956 -83.6039 North 107 123 4,400 836 Climbing Cleveland Center
Tue 17:40:27 42.2756 -83.5719 130° Southeast 133 153 5,000 672 Climbing Cleveland Center
Tue 17:41:22 42.2533 -83.5372 131° Southeast 134 154 5,700 541 Climbing Cleveland Center
Tue 17:42:29 42.2339 -83.4886 118° Southeast 147 169 6,100 141 Climbing Cleveland Center
Tue 17:43:30 42.2081 -83.4286 120° Southeast 167 192 6,000 -49 Descending Cleveland Center
Tue 17:44:31 42.1867 -83.3717 117° Southeast 167 192 6,000  Level Cleveland Center
Tue 17:45:32 42.1650 -83.3172 118° Southeast 170 196 6,000  Level Cleveland Center
Tue 17:46:27 42.1453 -83.2689 119° Southeast 171 197 6,000  Level Cleveland Center
Tue 17:47:28 42.1217 -83.2064 117° Southeast 170 196 6,000  Level Cleveland Center
Tue 17:48:22 42.1042 -83.1553 115° Southeast 171 197 6,000 -209 Level Cleveland Center
Tue 17:49:23 42.0783 -83.0983 121° Southeast 181 208 5,600 -393 Descending Cleveland Center
Tue 17:50:24 42.0567 -83.0386 116° Southeast 182 209 5,200 -281 Descending Cleveland Center
Tue 17:51:31 42.0289 -82.9733 120° Southeast 174 200 5,000 -94 Descending Cleveland Center
Tue 17:52:32 42.0072 -82.9167 117° Southeast 164 189 5,000  Level Cleveland Center
Tue 17:54:28 41.9656 -82.8089 117° Southeast 168 193 5,000  Level Cleveland Center
Tue 17:55:41 41.9375 -82.7408 119° Southeast 170 196 5,000 55 Level Cleveland Center
Tue 17:56:17 41.9236 -82.7125 123° Southeast 168 193 5,100  Climbing Cleveland Center
Tue 17:57:06 41.9056 -82.6672 118° Southeast 169 194 5,000 -55 Descending Cleveland Center
Tue 17:58:06 41.8814 -82.6136 121° Southeast 169 194 5,000  Level Cleveland Center
Tue 17:59:13 41.8575 -82.5514 117° Southeast 168 193 5,000  Level Cleveland Center
Tue 18:00:20 41.8317 -82.4864 118° Southeast 167 192 5,000  Level Cleveland Center
Tue 18:01:15 41.8114 -82.4386 120° Southeast 167 192 5,000  Level Cleveland Center
Tue 18:02:16 41.7894 -82.3850 119° Southeast 169 194 5,000 -295 Level Cleveland Center
Tue 18:03:17 41.7653 -82.3258 119° Southeast 183 211 4,400 -492 Descending Cleveland Center
Tue 18:04:18 41.7433 -82.2639 115° Southeast 184 212 4,000 -198 Descending Cleveland Center
Tue 18:05:18 41.7192 -82.2078 120° Southeast 165 190 4,000  Level Cleveland Center
Tue 18:06:13 41.7011 -82.1572 116° Southeast 163 188 4,000 -273 Level Cleveland Center
Tue 18:07:08 41.6789 -82.1067 120° Southeast 172 198 3,500 -492 Descending Cleveland Center
Tue 18:08:15 41.6525 -82.0450 120° Southeast 181 208 3,000 -516 Descending Cleveland Center
Tue 18:09:16 41.6283 -81.9861 119° Southeast 175 201 2,400 -626 Descending Cleveland Center
Tue 18:10:10 41.6081 -81.9356 118° Southeast 183 211 1,800 -417 Descending Cleveland Center
Tue 18:11:11 41.5817 -81.8767 121° Southeast 168 193 1,600 -47 Descending Cleveland Center
Tue 18:12:18 41.5531 -81.8233 126° Southeast 152 175 1,700 49 Climbing Cleveland Center
Tue 18:13:13 41.5325 -81.7814 123° Southeast 153 176 1,700 -109 Level Cleveland Center
Tue 18:14:08 41.5122 -81.7394 123° Southeast 148 170 1,500 -218 Descending Cleveland Center
Tue 18:16:00 41.5175 -81.6833 108° East  Level Estimated
Tue 18:23:00 41.5175 -81.6833 108° East  Level Estimated

Login

Don't have an account? Register now (free) for customized features, flight alerts, and more!